createdAt,value
2023-01-08T00:00:50.209Z,88.39
2023-01-08T00:01:52.759Z,88.48
2023-01-08T00:02:54.435Z,88.29
2023-01-08T00:03:57.068Z,88.25
2023-01-08T00:04:58.631Z,87.67
2023-01-08T00:06:02.905Z,86.97
2023-01-08T00:07:07.443Z,86.92
2023-01-08T00:08:10.312Z,87.00
2023-01-08T00:09:14.199Z,87.36
2023-01-08T00:10:15.945Z,86.94
2023-01-08T00:11:18.678Z,87.00
2023-01-08T00:12:20.243Z,86.50
2023-01-08T00:13:22.985Z,86.56
2023-01-08T00:14:24.538Z,86.81
2023-01-08T00:15:27.069Z,86.79
2023-01-08T00:16:29.823Z,86.83
2023-01-08T00:17:31.331Z,87.22
2023-01-08T00:18:37.082Z,86.63
2023-01-08T00:19:41.508Z,86.20
2023-01-08T00:20:44.371Z,86.16
2023-01-08T00:21:46.872Z,86.46
2023-01-08T00:22:49.096Z,86.06
2023-01-08T00:23:55.384Z,85.88
2023-01-08T00:24:58.249Z,85.89
2023-01-08T00:26:02.305Z,84.84
2023-01-08T00:27:04.062Z,84.93
2023-01-08T00:28:06.579Z,85.47
2023-01-08T00:29:08.277Z,85.38
2023-01-08T00:30:11.806Z,84.81
2023-01-08T00:31:13.995Z,84.45
2023-01-08T00:32:16.576Z,84.29
2023-01-08T00:33:18.071Z,84.33
2023-01-08T00:34:20.544Z,84.52
2023-01-08T00:35:22.116Z,85.00
2023-01-08T00:36:24.700Z,85.09
2023-01-08T00:37:26.235Z,84.62
2023-01-08T00:38:29.483Z,84.75
2023-01-08T00:39:31.123Z,84.69
2023-01-08T00:40:36.220Z,84.17
2023-01-08T00:41:37.754Z,83.93
2023-01-08T00:42:40.216Z,83.86
2023-01-08T00:43:41.782Z,83.72
2023-01-08T00:44:44.264Z,83.78
2023-01-08T00:45:45.864Z,83.82
2023-01-08T00:46:48.413Z,84.22
2023-01-08T00:47:50.006Z,83.95
2023-01-08T00:48:52.461Z,83.81
2023-01-08T00:49:53.944Z,83.69
2023-01-08T00:50:56.698Z,83.53
2023-01-08T00:51:59.142Z,83.24
2023-01-08T00:53:00.923Z,83.12
2023-01-08T00:54:03.489Z,82.63
2023-01-08T00:55:06.195Z,82.70
2023-01-08T00:56:11.513Z,82.32
2023-01-08T00:57:13.015Z,82.33
2023-01-08T00:58:16.007Z,82.62
2023-01-08T00:59:17.733Z,82.13
2023-01-08T01:00:20.265Z,81.66
2023-01-08T01:01:21.946Z,81.41
2023-01-08T01:02:24.519Z,81.99
2023-01-08T01:03:26.157Z,82.31
2023-01-08T01:04:28.778Z,82.25
2023-01-08T01:05:30.390Z,82.09
2023-01-08T01:06:32.882Z,81.98
2023-01-08T01:07:34.980Z,81.66
2023-01-08T01:08:37.451Z,81.42
2023-01-08T01:09:38.958Z,82.22
2023-01-08T01:10:41.420Z,81.99
2023-01-08T01:11:44.249Z,82.18
2023-01-08T01:12:46.859Z,82.48
2023-01-08T01:13:48.932Z,82.79
2023-01-08T01:14:51.713Z,83.23
2023-01-08T01:16:00.346Z,82.95
2023-01-08T01:17:02.841Z,83.00
2023-01-08T01:18:04.434Z,83.48
2023-01-08T01:19:06.943Z,83.21
2023-01-08T01:20:11.107Z,82.84
2023-01-08T01:21:18.690Z,82.50
2023-01-08T01:22:20.182Z,82.94
2023-01-08T01:23:22.691Z,82.91
2023-01-08T01:24:25.185Z,82.71
2023-01-08T01:25:26.828Z,83.25
2023-01-08T01:26:29.867Z,83.33
2023-01-08T01:27:32.763Z,83.25
2023-01-08T01:28:35.230Z,82.98
2023-01-08T01:29:38.741Z,83.19
2023-01-08T01:30:41.335Z,82.93
2023-01-08T01:31:44.001Z,82.42
2023-01-08T01:32:45.553Z,82.65
2023-01-08T01:33:48.548Z,82.01
2023-01-08T01:34:50.069Z,82.45
2023-01-08T01:36:00.799Z,82.89
2023-01-08T01:37:02.435Z,83.19
2023-01-08T01:38:04.905Z,83.74
2023-01-08T01:39:06.460Z,83.83
2023-01-08T01:40:09.861Z,83.78
2023-01-08T01:41:19.360Z,83.57
2023-01-08T01:42:35.809Z,83.05
2023-01-08T01:43:42.208Z,83.20
2023-01-08T01:44:45.106Z,83.50
2023-01-08T01:45:47.631Z,83.56
2023-01-08T01:46:49.980Z,84.22
2023-01-08T01:47:56.862Z,84.38
2023-01-08T01:49:01.801Z,84.29
2023-01-08T01:50:09.632Z,83.77
2023-01-08T01:51:11.180Z,83.69
2023-01-08T01:52:13.702Z,84.10
2023-01-08T01:53:20.273Z,84.42
2023-01-08T01:54:23.468Z,84.16
2023-01-08T01:55:26.902Z,84.41
2023-01-08T01:56:30.042Z,84.41
2023-01-08T01:57:33.283Z,84.12
2023-01-08T01:58:35.907Z,83.79
2023-01-08T01:59:38.786Z,84.36
2023-01-08T02:00:42.224Z,84.05
2023-01-08T02:01:44.236Z,83.74
2023-01-08T02:02:46.920Z,83.68
2023-01-08T02:03:48.549Z,83.73
2023-01-08T02:04:51.384Z,84.13
2023-01-08T02:05:59.000Z,84.51
2023-01-08T02:07:08.446Z,84.37
2023-01-08T02:08:13.587Z,83.91
2023-01-08T02:09:23.553Z,83.43
2023-01-08T02:10:32.289Z,84.06
2023-01-08T02:11:45.193Z,83.87
2023-01-08T02:12:51.989Z,83.71
2023-01-08T02:14:01.640Z,83.90
2023-01-08T02:15:12.622Z,84.10
2023-01-08T02:16:19.673Z,84.12
2023-01-08T02:17:26.669Z,83.99
2023-01-08T02:18:33.695Z,83.55
2023-01-08T02:19:42.611Z,84.02
2023-01-08T02:20:48.749Z,84.01
2023-01-08T02:22:02.715Z,84.05
2023-01-08T02:23:15.523Z,83.68
2023-01-08T02:24:22.939Z,83.73
2023-01-08T02:25:38.858Z,83.25
2023-01-08T02:26:44.743Z,82.87
2023-01-08T02:27:50.431Z,82.81
2023-01-08T02:28:58.283Z,82.84
2023-01-08T02:30:02.297Z,82.53
2023-01-08T02:31:06.006Z,82.23
2023-01-08T02:32:08.965Z,81.80
2023-01-08T02:33:11.680Z,81.87
2023-01-08T02:34:14.385Z,82.16
2023-01-08T02:35:15.975Z,82.00
2023-01-08T02:36:35.124Z,81.86
2023-01-08T02:37:38.277Z,81.70
2023-01-08T02:38:55.052Z,80.73
2023-01-08T02:40:07.026Z,80.78
2023-01-08T02:41:11.466Z,80.85
2023-01-08T02:42:24.839Z,80.94
2023-01-08T02:43:30.747Z,81.18
2023-01-08T02:44:46.369Z,81.12
2023-01-08T02:45:50.972Z,81.30
2023-01-08T02:46:56.678Z,81.45
2023-01-08T02:48:07.696Z,81.49
2023-01-08T02:49:12.589Z,81.16
2023-01-08T02:50:22.576Z,81.03
2023-01-08T02:51:29.090Z,80.88
2023-01-08T02:52:36.106Z,81.41
2023-01-08T02:53:42.107Z,81.85
2023-01-08T02:54:45.924Z,81.50
2023-01-08T02:55:53.644Z,81.69
2023-01-08T02:56:59.592Z,81.49
2023-01-08T02:58:04.542Z,81.11
2023-01-08T02:59:08.078Z,81.63
2023-01-08T03:00:12.153Z,82.27
2023-01-08T03:01:18.189Z,82.00
2023-01-08T03:02:19.909Z,82.16
2023-01-08T03:03:25.382Z,82.52
2023-01-08T03:04:31.213Z,82.88
2023-01-08T03:05:34.859Z,82.40
2023-01-08T03:06:37.990Z,82.50
2023-01-08T03:07:40.573Z,81.99
2023-01-08T03:08:44.646Z,81.84
2023-01-08T03:09:47.547Z,81.69
2023-01-08T03:10:56.517Z,82.45
2023-01-08T03:12:02.166Z,82.30
2023-01-08T03:13:12.756Z,81.88
2023-01-08T03:14:22.966Z,81.68
2023-01-08T03:15:30.297Z,82.11
2023-01-08T03:16:35.911Z,82.21
2023-01-08T03:17:42.783Z,81.44
2023-01-08T03:18:50.149Z,81.21
2023-01-08T03:19:54.723Z,80.90
2023-01-08T03:20:57.285Z,80.82
2023-01-08T03:22:00.918Z,80.90
2023-01-08T03:23:08.473Z,81.49
2023-01-08T03:24:12.311Z,81.27
2023-01-08T03:25:17.105Z,81.53
2023-01-08T03:26:22.662Z,81.37
2023-01-08T03:27:31.922Z,81.31
2023-01-08T03:28:39.383Z,81.36
2023-01-08T03:29:40.982Z,80.98
2023-01-08T03:30:44.987Z,81.08
2023-01-08T03:31:47.602Z,81.29
2023-01-08T03:32:52.390Z,80.76
2023-01-08T03:33:55.217Z,80.38
2023-01-08T03:35:00.382Z,80.52
2023-01-08T03:36:05.422Z,80.57
2023-01-08T03:37:10.745Z,79.99
2023-01-08T03:38:18.326Z,79.44
2023-01-08T03:39:24.316Z,78.94
2023-01-08T03:40:32.516Z,78.15
2023-01-08T03:41:36.172Z,78.20
2023-01-08T03:42:38.847Z,77.96
2023-01-08T03:43:41.677Z,78.03
2023-01-08T03:44:44.322Z,78.63
2023-01-08T03:45:51.675Z,79.15
2023-01-08T03:46:56.585Z,79.55
2023-01-08T03:48:00.397Z,79.44
2023-01-08T03:49:05.514Z,78.98
2023-01-08T03:50:10.269Z,78.43
2023-01-08T03:51:13.108Z,78.24
2023-01-08T03:52:22.305Z,78.33
2023-01-08T03:53:24.810Z,78.17
2023-01-08T03:54:31.596Z,78.30
2023-01-08T03:55:34.147Z,78.01
2023-01-08T03:56:38.004Z,78.08
2023-01-08T03:57:40.461Z,78.69
2023-01-08T03:58:43.357Z,78.34
2023-01-08T03:59:45.967Z,78.13
2023-01-08T04:00:47.570Z,78.16
2023-01-08T04:01:50.419Z,78.56
2023-01-08T04:02:52.011Z,78.29
2023-01-08T04:03:54.546Z,78.50
2023-01-08T04:04:56.144Z,77.91
2023-01-08T04:06:00.359Z,77.37
2023-01-08T04:07:02.069Z,76.87
2023-01-08T04:08:04.757Z,77.08
2023-01-08T04:09:06.487Z,76.60
2023-01-08T04:10:09.487Z,76.24
2023-01-08T04:11:10.948Z,75.88
2023-01-08T04:12:13.438Z,76.06
2023-01-08T04:13:15.898Z,75.91
2023-01-08T04:14:18.889Z,75.79
2023-01-08T04:15:21.735Z,75.44
2023-01-08T04:16:23.515Z,75.20
2023-01-08T04:17:26.160Z,75.09
2023-01-08T04:18:27.671Z,75.76
2023-01-08T04:19:30.213Z,76.27
2023-01-08T04:20:31.706Z,75.92
2023-01-08T04:21:34.133Z,77.50
2023-01-08T04:22:35.610Z,77.80
2023-01-08T04:23:38.058Z,77.24
2023-01-08T04:24:39.660Z,76.89
2023-01-08T04:25:42.251Z,76.35
2023-01-08T04:26:43.917Z,75.65
2023-01-08T04:27:46.324Z,74.97
2023-01-08T04:28:47.849Z,74.95
2023-01-08T04:29:51.623Z,74.67
2023-01-08T04:30:53.151Z,74.55
2023-01-08T04:31:55.623Z,75.98
2023-01-08T04:32:57.362Z,76.52
2023-01-08T04:33:59.787Z,76.62
2023-01-08T04:35:02.234Z,76.19
2023-01-08T04:36:05.161Z,75.81
2023-01-08T04:37:07.613Z,76.39
2023-01-08T04:38:10.922Z,77.02
2023-01-08T04:39:14.075Z,76.37
2023-01-08T04:40:16.033Z,75.74
2023-01-08T04:41:19.291Z,75.43
2023-01-08T04:42:20.846Z,75.29
2023-01-08T04:43:23.304Z,74.99
2023-01-08T04:44:25.754Z,74.77
2023-01-08T04:45:29.475Z,74.83
2023-01-08T04:46:30.958Z,75.08
2023-01-08T04:47:33.486Z,74.77
2023-01-08T04:48:35.500Z,74.75
2023-01-08T04:49:37.911Z,74.90
2023-01-08T04:50:39.450Z,75.34
2023-01-08T04:51:41.896Z,76.35
2023-01-08T04:52:43.393Z,76.39
2023-01-08T04:53:46.350Z,77.95
2023-01-08T04:54:47.947Z,77.95
2023-01-08T04:55:50.488Z,77.36
2023-01-08T04:56:51.999Z,77.01
2023-01-08T04:57:54.504Z,76.66
2023-01-08T04:58:55.991Z,76.50
2023-01-08T04:59:58.384Z,76.72
2023-01-08T05:01:01.801Z,77.92
2023-01-08T05:02:04.327Z,78.01
2023-01-08T05:03:06.015Z,78.75
2023-01-08T05:04:08.476Z,78.26
2023-01-08T05:05:10.141Z,77.64
2023-01-08T05:06:12.783Z,78.40
2023-01-08T05:07:14.363Z,78.72
2023-01-08T05:08:16.814Z,79.39
2023-01-08T05:09:18.354Z,79.01
2023-01-08T05:10:20.841Z,79.76
2023-01-08T05:11:22.809Z,80.71
2023-01-08T05:12:25.260Z,81.34
2023-01-08T05:13:26.874Z,82.15
2023-01-08T05:14:29.270Z,82.25
2023-01-08T05:15:30.778Z,82.24
2023-01-08T05:16:34.568Z,82.44
2023-01-08T05:17:36.259Z,82.20
2023-01-08T05:18:38.695Z,81.98
2023-01-08T05:19:40.285Z,82.00
2023-01-08T05:20:42.701Z,82.35
2023-01-08T05:21:45.228Z,82.28
2023-01-08T05:22:48.307Z,82.89
2023-01-08T05:23:50.761Z,83.59
2023-01-08T05:24:52.378Z,83.05
2023-01-08T05:25:58.092Z,82.96
2023-01-08T05:26:59.629Z,82.78
2023-01-08T05:28:02.114Z,82.39
2023-01-08T05:29:03.733Z,82.01
2023-01-08T05:30:07.569Z,82.12
2023-01-08T05:31:09.221Z,81.99
2023-01-08T05:32:16.783Z,82.02
2023-01-08T05:33:18.580Z,81.88
2023-01-08T05:34:20.986Z,81.37
2023-01-08T05:35:22.493Z,80.77
2023-01-08T05:36:24.989Z,80.81
2023-01-08T05:37:26.570Z,81.01
2023-01-08T05:38:29.038Z,80.27
2023-01-08T05:39:30.509Z,80.24
2023-01-08T05:40:32.989Z,80.38
2023-01-08T05:41:35.434Z,81.18
2023-01-08T05:42:37.441Z,80.96
2023-01-08T05:43:39.920Z,81.04
2023-01-08T05:44:41.392Z,80.72
2023-01-08T05:45:43.845Z,80.37
2023-01-08T05:46:45.427Z,79.80
2023-01-08T05:47:49.240Z,80.46
2023-01-08T05:48:50.742Z,80.47
2023-01-08T05:49:53.170Z,81.78
2023-01-08T05:50:54.686Z,82.51
2023-01-08T05:51:57.140Z,82.70
2023-01-08T05:52:59.523Z,82.33
2023-01-08T05:54:01.955Z,81.61
2023-01-08T05:55:03.692Z,81.35
2023-01-08T05:56:09.381Z,81.99
2023-01-08T05:57:11.231Z,82.79
2023-01-08T05:58:13.699Z,83.82
2023-01-08T05:59:15.179Z,84.08
2023-01-08T06:00:17.868Z,84.85
2023-01-08T06:01:19.418Z,85.01
2023-01-08T06:02:22.095Z,85.54
2023-01-08T06:03:24.919Z,85.45
2023-01-08T06:04:27.752Z,85.48
2023-01-08T06:05:30.351Z,85.00
2023-01-08T06:06:32.850Z,85.42
2023-01-08T06:07:34.384Z,85.36
2023-01-08T06:08:36.848Z,85.57
2023-01-08T06:09:38.381Z,85.82
2023-01-08T06:10:40.795Z,85.33
2023-01-08T06:11:42.310Z,85.40
2023-01-08T06:12:44.824Z,85.54
2023-01-08T06:13:46.429Z,85.32
2023-01-08T06:14:48.840Z,85.10
2023-01-08T06:15:50.363Z,84.47
2023-01-08T06:16:52.873Z,85.13
2023-01-08T06:17:54.435Z,85.12
2023-01-08T06:18:58.215Z,84.83
2023-01-08T06:19:59.716Z,85.49
2023-01-08T06:21:02.743Z,85.25
2023-01-08T06:22:04.251Z,84.81
2023-01-08T06:23:08.666Z,85.09
2023-01-08T06:24:10.349Z,84.83
2023-01-08T06:25:12.863Z,85.01
2023-01-08T06:26:14.316Z,84.84
2023-01-08T06:27:16.868Z,84.98
2023-01-08T06:28:18.364Z,85.32
2023-01-08T06:29:20.888Z,84.84
2023-01-08T06:30:22.404Z,85.16
2023-01-08T06:31:24.888Z,85.19
2023-01-08T06:32:26.466Z,85.25
2023-01-08T06:33:29.964Z,85.18
2023-01-08T06:34:33.751Z,85.17
2023-01-08T06:35:36.375Z,85.42
2023-01-08T06:36:37.877Z,85.26
2023-01-08T06:37:40.358Z,85.12
2023-01-08T06:38:41.844Z,85.31
2023-01-08T06:39:44.322Z,84.59
2023-01-08T06:40:45.968Z,85.21
2023-01-08T06:41:48.456Z,85.34
2023-01-08T06:42:50.907Z,85.27
2023-01-08T06:43:52.444Z,85.25
2023-01-08T06:44:54.858Z,85.02
2023-01-08T06:45:58.371Z,85.47
2023-01-08T06:47:00.844Z,85.33
2023-01-08T06:48:03.117Z,85.45
2023-01-08T06:49:05.544Z,85.94
2023-01-08T06:50:09.796Z,85.77
2023-01-08T06:51:11.290Z,85.51
2023-01-08T06:52:13.801Z,85.27
2023-01-08T06:53:15.388Z,84.88
2023-01-08T06:54:17.989Z,84.80
2023-01-08T06:55:19.882Z,85.30
2023-01-08T06:56:22.310Z,86.28
2023-01-08T06:57:23.823Z,87.31
2023-01-08T06:58:27.342Z,87.79
2023-01-08T06:59:28.819Z,87.74
2023-01-08T07:00:31.247Z,87.63
2023-01-08T07:01:32.737Z,87.63
2023-01-08T07:02:35.405Z,87.62
2023-01-08T07:03:37.010Z,87.13
2023-01-08T07:04:39.463Z,87.16
2023-01-08T07:05:42.315Z,87.28
2023-01-08T07:06:44.770Z,87.45
2023-01-08T07:07:46.323Z,88.29
2023-01-08T07:08:49.639Z,88.56
2023-01-08T07:09:51.124Z,88.79
2023-01-08T07:10:53.595Z,88.89
2023-01-08T07:11:55.097Z,88.16
2023-01-08T07:12:57.680Z,88.03
2023-01-08T07:13:59.186Z,88.06
2023-01-08T07:15:02.478Z,88.16
2023-01-08T07:16:07.307Z,87.95
2023-01-08T07:17:09.960Z,87.50
2023-01-08T07:18:12.659Z,86.77
2023-01-08T07:19:15.075Z,87.87
2023-01-08T07:20:16.782Z,87.64
2023-01-08T07:21:21.186Z,88.11
2023-01-08T07:22:24.271Z,87.71
2023-01-08T07:23:26.725Z,87.24
2023-01-08T07:24:29.316Z,86.89
2023-01-08T07:25:31.490Z,86.58
2023-01-08T07:26:34.197Z,85.48
2023-01-08T07:27:35.656Z,84.91
2023-01-08T07:28:38.043Z,86.13
2023-01-08T07:29:39.532Z,86.07
2023-01-08T07:30:43.182Z,85.44
2023-01-08T07:31:45.669Z,85.28
2023-01-08T07:32:47.194Z,84.78
2023-01-08T07:33:50.419Z,84.54
2023-01-08T07:34:54.219Z,84.32
2023-01-08T07:35:57.542Z,84.33
2023-01-08T07:37:01.435Z,84.12
2023-01-08T07:38:02.930Z,84.00
2023-01-08T07:39:05.544Z,84.32
2023-01-08T07:40:08.278Z,84.43
2023-01-08T07:41:10.732Z,84.36
2023-01-08T07:42:12.206Z,84.91
2023-01-08T07:43:15.097Z,84.90
2023-01-08T07:44:16.700Z,84.98
2023-01-08T07:45:19.221Z,84.41
2023-01-08T07:46:20.827Z,84.68
2023-01-08T07:47:23.277Z,83.81
2023-01-08T07:48:24.818Z,83.56
2023-01-08T07:49:27.251Z,83.47
2023-01-08T07:50:28.887Z,83.41
2023-01-08T07:51:31.427Z,83.19
2023-01-08T07:52:34.215Z,82.06
2023-01-08T07:53:37.651Z,81.73
2023-01-08T07:54:40.047Z,81.80
2023-01-08T07:55:42.447Z,81.95
2023-01-08T07:56:45.118Z,81.16
2023-01-08T07:57:46.762Z,81.49
2023-01-08T07:58:49.187Z,81.58
2023-01-08T07:59:50.621Z,82.01
2023-01-08T08:00:53.063Z,82.28
2023-01-08T08:01:54.651Z,83.05
2023-01-08T08:02:57.230Z,82.91
2023-01-08T08:03:58.755Z,83.15
2023-01-08T08:05:01.207Z,82.88
2023-01-08T08:06:03.686Z,83.04
2023-01-08T08:07:06.171Z,83.85
2023-01-08T08:08:10.054Z,84.03
2023-01-08T08:09:12.451Z,84.16
2023-01-08T08:10:13.952Z,84.59
2023-01-08T08:11:16.379Z,84.13
2023-01-08T08:12:17.996Z,83.80
2023-01-08T08:13:20.433Z,83.97
2023-01-08T08:14:21.951Z,83.15
2023-01-08T08:15:24.380Z,83.39
2023-01-08T08:16:26.972Z,83.45
2023-01-08T08:17:28.564Z,83.94
2023-01-08T08:18:31.042Z,84.52
2023-01-08T08:19:32.580Z,83.95
2023-01-08T08:20:35.170Z,84.54
2023-01-08T08:21:37.585Z,84.19
2023-01-08T08:22:39.053Z,84.54
2023-01-08T08:23:42.779Z,84.09
2023-01-08T08:24:44.265Z,84.21
2023-01-08T08:25:46.719Z,84.37
2023-01-08T08:26:48.326Z,84.75
2023-01-08T08:27:50.788Z,84.24
2023-01-08T08:28:55.147Z,84.27
2023-01-08T08:29:57.567Z,84.07
2023-01-08T08:31:00.139Z,83.80
2023-01-08T08:32:01.665Z,83.91
2023-01-08T08:33:05.974Z,83.80
2023-01-08T08:34:08.029Z,83.55
2023-01-08T08:35:10.910Z,83.30
2023-01-08T08:36:13.439Z,82.77
2023-01-08T08:37:15.870Z,84.71
2023-01-08T08:38:18.376Z,85.62
2023-01-08T08:39:21.282Z,85.04
2023-01-08T08:40:24.370Z,83.97
2023-01-08T08:41:26.825Z,83.12
2023-01-08T08:42:28.287Z,83.84
2023-01-08T08:43:30.740Z,85.60
2023-01-08T08:44:33.198Z,86.15
2023-01-08T08:45:35.723Z,85.54
2023-01-08T08:46:37.256Z,84.79
2023-01-08T08:47:40.160Z,84.43
2023-01-08T08:48:42.620Z,86.13
2023-01-08T08:49:44.126Z,86.39
2023-01-08T08:50:46.569Z,85.96
2023-01-08T08:51:48.051Z,87.50
2023-01-08T08:52:50.555Z,88.57
2023-01-08T08:53:53.336Z,90.05
2023-01-08T08:54:56.237Z,90.36
2023-01-08T08:55:59.309Z,91.45
2023-01-08T08:57:02.473Z,92.70
2023-01-08T08:58:06.730Z,92.66
2023-01-08T08:59:13.096Z,92.41
2023-01-08T09:00:16.964Z,91.55
2023-01-08T09:01:18.590Z,90.57
2023-01-08T09:02:21.423Z,91.27
2023-01-08T09:03:24.043Z,92.74
2023-01-08T09:04:25.520Z,92.15
2023-01-08T09:05:28.640Z,91.08
2023-01-08T09:06:33.187Z,89.66
2023-01-08T09:07:38.067Z,88.16
2023-01-08T09:08:40.830Z,87.24
2023-01-08T09:09:42.359Z,86.72
2023-01-08T09:10:46.289Z,86.25
2023-01-08T09:11:50.565Z,86.58
2023-01-08T09:12:54.296Z,87.08
2023-01-08T09:13:57.001Z,87.94
2023-01-08T09:15:00.277Z,88.37
2023-01-08T09:16:03.107Z,88.47
2023-01-08T09:17:04.661Z,87.31
2023-01-08T09:18:07.548Z,86.82
2023-01-08T09:19:09.526Z,86.19
2023-01-08T09:20:12.132Z,85.75
2023-01-08T09:21:13.601Z,84.72
2023-01-08T09:22:16.042Z,83.89
2023-01-08T09:23:18.495Z,84.28
2023-01-08T09:24:20.023Z,84.08
2023-01-08T09:25:22.472Z,83.79
2023-01-08T09:26:28.525Z,82.97
2023-01-08T09:27:31.085Z,82.48
2023-01-08T09:28:33.148Z,82.36
2023-01-08T09:29:35.583Z,81.82
2023-01-08T09:30:38.059Z,82.17
2023-01-08T09:31:39.626Z,81.99
2023-01-08T09:32:42.108Z,83.16
2023-01-08T09:33:43.589Z,83.49
2023-01-08T09:34:46.029Z,84.50
2023-01-08T09:35:48.504Z,85.91
2023-01-08T09:36:51.040Z,87.40
2023-01-08T09:37:53.633Z,88.32
2023-01-08T09:38:56.108Z,86.96
2023-01-08T09:40:02.254Z,87.18
2023-01-08T09:41:09.592Z,87.13
2023-01-08T09:42:14.328Z,88.48
2023-01-08T09:43:20.746Z,88.56
2023-01-08T09:44:27.543Z,87.70
2023-01-08T09:45:32.642Z,86.71
2023-01-08T09:46:35.879Z,87.40
2023-01-08T09:47:41.887Z,87.17
2023-01-08T09:48:44.340Z,86.01
2023-01-08T09:49:49.490Z,85.63
2023-01-08T09:50:52.565Z,85.64
2023-01-08T09:51:55.838Z,84.87
2023-01-08T09:52:59.028Z,83.94
2023-01-08T09:54:02.230Z,83.69
2023-01-08T09:55:11.346Z,83.97
2023-01-08T09:56:16.508Z,84.54
2023-01-08T09:57:22.560Z,84.05
2023-01-08T09:58:33.468Z,84.45
2023-01-08T09:59:35.938Z,84.00
2023-01-08T10:00:37.534Z,83.66
2023-01-08T10:01:40.973Z,83.25
2023-01-08T10:02:44.302Z,82.63
2023-01-08T10:03:50.173Z,82.25
2023-01-08T10:04:57.249Z,81.20
2023-01-08T10:05:58.761Z,81.27
2023-01-08T10:07:07.043Z,81.14
2023-01-08T10:08:14.698Z,80.69
2023-01-08T10:09:16.611Z,79.66
2023-01-08T10:10:23.765Z,80.90
2023-01-08T10:11:29.259Z,80.18
2023-01-08T10:12:36.735Z,79.53
2023-01-08T10:13:42.639Z,79.42
2023-01-08T10:14:49.934Z,80.20
2023-01-08T10:15:53.176Z,80.50
2023-01-08T10:16:59.799Z,80.13
2023-01-08T10:18:05.621Z,80.71
2023-01-08T10:19:10.862Z,80.79
2023-01-08T10:20:15.344Z,81.14
2023-01-08T10:21:17.635Z,81.97
2023-01-08T10:22:22.061Z,81.00
2023-01-08T10:23:25.578Z,80.81
2023-01-08T10:24:35.479Z,79.73
2023-01-08T10:25:49.970Z,80.24
2023-01-08T10:26:53.125Z,80.17
2023-01-08T10:28:01.841Z,80.80
2023-01-08T10:29:08.824Z,80.71
2023-01-08T10:30:17.550Z,80.94
2023-01-08T10:31:20.041Z,80.82
2023-01-08T10:32:29.699Z,80.21
2023-01-08T10:33:39.654Z,79.97
2023-01-08T10:34:45.594Z,80.69
2023-01-08T10:35:55.902Z,80.52
2023-01-08T10:36:57.410Z,80.47
2023-01-08T10:38:00.120Z,80.90
2023-01-08T10:39:03.056Z,81.07
2023-01-08T10:40:23.501Z,80.67
2023-01-08T10:41:26.355Z,79.48
2023-01-08T10:42:28.800Z,79.63
2023-01-08T10:43:34.821Z,79.70
2023-01-08T10:44:37.710Z,79.66
2023-01-08T10:45:41.856Z,80.99
2023-01-08T10:46:48.168Z,81.53
2023-01-08T10:48:00.251Z,80.94
2023-01-08T10:49:06.480Z,81.08
2023-01-08T10:50:20.284Z,81.75
2023-01-08T10:51:24.879Z,81.65
2023-01-08T10:52:31.707Z,81.36
2023-01-08T10:53:33.320Z,81.69
2023-01-08T10:54:37.991Z,81.75
2023-01-08T10:55:40.617Z,81.51
2023-01-08T10:56:44.197Z,81.70
2023-01-08T10:57:57.942Z,81.73
2023-01-08T10:59:01.708Z,81.22
2023-01-08T11:00:06.606Z,81.59
2023-01-08T11:01:17.024Z,81.51
2023-01-08T11:02:30.637Z,81.41
2023-01-08T11:03:33.794Z,81.17
2023-01-08T11:04:37.650Z,80.70
2023-01-08T11:05:42.966Z,80.45
2023-01-08T11:06:45.328Z,80.27
2023-01-08T11:07:54.955Z,80.09
2023-01-08T11:09:00.251Z,80.26
2023-01-08T11:10:05.378Z,80.59
2023-01-08T11:11:10.959Z,79.71
2023-01-08T11:12:33.013Z,79.88
2023-01-08T11:13:34.610Z,79.83
2023-01-08T11:14:39.906Z,78.64
2023-01-08T11:15:43.103Z,78.05
2023-01-08T11:16:44.822Z,77.50
2023-01-08T11:17:47.622Z,78.31
2023-01-08T11:18:52.199Z,78.82
2023-01-08T11:19:55.935Z,79.18
2023-01-08T11:21:08.917Z,78.80
2023-01-08T11:22:19.505Z,78.93
2023-01-08T11:23:24.516Z,78.90
2023-01-08T11:24:29.148Z,78.67
2023-01-08T11:25:32.919Z,78.96
2023-01-08T11:26:37.290Z,79.89
2023-01-08T11:27:43.526Z,80.28
2023-01-08T11:28:57.009Z,79.41
2023-01-08T11:30:04.980Z,79.03
2023-01-08T11:31:15.842Z,79.01
2023-01-08T11:32:37.470Z,79.15
2023-01-08T11:33:40.730Z,78.87
2023-01-08T11:34:52.420Z,78.56
2023-01-08T11:35:59.999Z,77.42
2023-01-08T11:37:13.223Z,77.21
2023-01-08T11:38:14.832Z,78.02
2023-01-08T11:39:18.403Z,78.58
2023-01-08T11:40:32.411Z,79.37
2023-01-08T11:41:53.369Z,80.23
2023-01-08T11:43:03.535Z,80.25
2023-01-08T11:44:21.962Z,81.27
2023-01-08T11:45:38.341Z,80.96
2023-01-08T11:46:45.905Z,80.67
2023-01-08T11:48:05.261Z,80.20
2023-01-08T11:49:30.701Z,79.47
2023-01-08T11:50:36.651Z,80.73
2023-01-08T11:52:01.765Z,80.03
2023-01-08T11:53:15.731Z,80.05
2023-01-08T11:54:29.542Z,79.58
2023-01-08T11:55:50.624Z,79.70
2023-01-08T11:57:10.497Z,79.66
2023-01-08T11:58:33.176Z,80.65
2023-01-08T11:59:52.682Z,80.06
2023-01-08T12:01:08.382Z,79.71
2023-01-08T12:02:23.618Z,78.95
2023-01-08T12:03:32.444Z,79.54
2023-01-08T12:04:49.833Z,79.19
2023-01-08T12:06:02.031Z,78.58
2023-01-08T12:07:15.789Z,77.85
2023-01-08T12:08:27.769Z,77.09
2023-01-08T12:09:40.780Z,77.24
2023-01-08T12:10:57.494Z,77.66
2023-01-08T12:12:08.670Z,77.34
2023-01-08T12:13:25.050Z,78.29
2023-01-08T12:14:46.380Z,77.34
2023-01-08T12:15:59.103Z,78.84
2023-01-08T12:17:36.393Z,79.47
2023-01-08T12:19:00.502Z,79.43
2023-01-08T12:20:16.794Z,79.35
2023-01-08T12:21:26.206Z,79.28
2023-01-08T12:22:38.605Z,78.61
2023-01-08T12:23:56.914Z,79.01
2023-01-08T12:25:17.233Z,79.13
2023-01-08T12:26:25.405Z,78.85
2023-01-08T12:27:55.777Z,79.21
2023-01-08T12:29:38.897Z,79.14
2023-01-08T12:30:52.701Z,78.86
2023-01-08T12:32:19.590Z,80.04
2023-01-08T12:33:36.998Z,81.34
2023-01-08T12:34:51.592Z,80.89
2023-01-08T12:35:58.687Z,79.60
2023-01-08T12:37:12.000Z,78.78
2023-01-08T12:38:19.661Z,77.74
2023-01-08T12:39:27.844Z,77.55
2023-01-08T12:40:34.360Z,77.26
2023-01-08T12:41:36.421Z,78.68
2023-01-08T12:42:47.146Z,79.21
2023-01-08T12:43:58.925Z,78.78
2023-01-08T12:45:04.580Z,78.48
2023-01-08T12:46:08.584Z,77.89
2023-01-08T12:47:16.203Z,77.84
2023-01-08T12:48:21.314Z,77.36
2023-01-08T12:49:30.642Z,77.46
2023-01-08T12:50:42.531Z,77.47
2023-01-08T12:51:57.116Z,78.69
2023-01-08T12:53:05.053Z,79.16
2023-01-08T12:54:17.713Z,79.26
2023-01-08T12:55:31.546Z,78.01
2023-01-08T12:56:45.274Z,78.18
2023-01-08T12:57:59.194Z,79.23
2023-01-08T12:59:19.800Z,79.13
2023-01-08T13:00:31.662Z,78.73
2023-01-08T13:01:46.265Z,78.73
2023-01-08T13:02:57.097Z,78.57
2023-01-08T13:03:59.144Z,79.23
2023-01-08T13:05:13.967Z,79.65
2023-01-08T13:06:19.382Z,79.47
2023-01-08T13:07:27.442Z,79.81
2023-01-08T13:08:34.244Z,80.61
2023-01-08T13:09:36.748Z,80.47
2023-01-08T13:10:41.086Z,79.21
2023-01-08T13:11:43.689Z,79.45
2023-01-08T13:12:50.768Z,80.50
2023-01-08T13:14:01.342Z,80.36
2023-01-08T13:15:05.582Z,80.21
2023-01-08T13:16:21.651Z,80.58
2023-01-08T13:17:25.497Z,80.42
2023-01-08T13:18:27.111Z,80.15
2023-01-08T13:19:32.613Z,80.27
2023-01-08T13:20:36.899Z,81.00
2023-01-08T13:21:42.439Z,80.98
2023-01-08T13:22:45.122Z,80.90
2023-01-08T13:23:46.787Z,80.82
2023-01-08T13:24:49.280Z,81.67
2023-01-08T13:25:56.503Z,81.97
2023-01-08T13:27:11.591Z,82.48
2023-01-08T13:28:31.671Z,82.81
2023-01-08T13:29:38.974Z,83.10
2023-01-08T13:30:46.331Z,83.74
2023-01-08T13:31:48.795Z,83.70
2023-01-08T13:32:50.310Z,83.44
2023-01-08T13:33:53.240Z,83.17
2023-01-08T13:35:13.887Z,82.57
2023-01-08T13:36:22.560Z,83.44
2023-01-08T13:37:27.693Z,83.54
2023-01-08T13:38:30.610Z,82.76
2023-01-08T13:39:36.880Z,83.79
2023-01-08T13:40:53.098Z,83.64
2023-01-08T13:42:02.577Z,83.43
2023-01-08T13:43:14.429Z,83.97
2023-01-08T13:44:23.234Z,83.52
2023-01-08T13:45:28.813Z,82.72
2023-01-08T13:46:32.353Z,82.72
2023-01-08T13:47:36.814Z,82.83
2023-01-08T13:48:49.624Z,82.76
2023-01-08T13:49:57.045Z,82.79
2023-01-08T13:50:59.676Z,82.77
2023-01-08T13:52:04.168Z,82.87
2023-01-08T13:53:06.601Z,82.53
2023-01-08T13:54:35.441Z,83.11
2023-01-08T13:55:41.041Z,83.36
2023-01-08T13:56:45.414Z,83.11